메인 페이지
METAR-TAF:

METAR-TAF

공항 :

Fort Dodge, 아이오와, 미국

위도: 42-33N, 경도: 094-11W, 고도: 354m

현재 날씨관측

예보는 1 시간 13분 전, 07:56시(UTC)에 발표되었습니다.
동남동5kt
온도 1°C
습도 80%
기압 1024 hPa
시정: 16.1km
고도 4300ft 상공 흐림

METAR: KFOD 200756Z AUTO 11005KT 10SM OVC043 01/M02 A3023 RMK AO2 SLP276 T00111017 FZRANO

시각: 04:09 (09:09 UTC)

예보

예보는 3 시간 49분 전, 05:20시(UTC)에 발표되었습니다.
예보 대상 시간: 20일 06시부터 21일 06시까지 (UTC)
남동5kt
시정: 10km
고도 1500ft 상공 흐림
20일 1500시부터 (UTC)
남동12kt
시정: 10km
고도 2000ft 상공 흐림
시계 내 소나기
20일 2000시부터 (UTC)
남남동11kt
시정: 10km
고도 800ft 상공 흐림
시계 내 소나기
21일 0000시부터 (UTC)
6kt
시정: 10km
고도 800ft 상공 흐림
21일 0200시부터 (UTC)
남서6kt
시정: 10km
고도 1500ft 상공 구름 많음
21일 0400시부터 (UTC)
서남서6kt
시정: 10km
고도 11000ft 상공 구름 보통

TAF: KFOD 200520Z 2006/2106 13005KT P6SM OVC015 FM201500 13012KT P6SM VCSH OVC020 FM202000 16011KT P6SM VCSH OVC008 FM210000 19006KT P6SM OVC008 FM210200 22006KT P6SM BKN015 FM210400 25006KT P6SM SCT110

4,000개 이상의 공항 관측 자료 및 예보 (METAR 및 TAF 보고).

지도상에서 검색 가능한 기상관측소가 노란 점과 빨간 점으로 표시되어 있습니다.

기상관측소 명을 보려면 표시 위로 마우스를 이동하세요.

날씨 관측과 예보를 보려면 클릭하세요.

지도 변경 : 확대하려면 엑스 표시가 있는 녹색 버튼, 축소하려면 빼기 표시가 있는 녹색 버튼, 다음 페이지의 지도를 보려면 녹색 화살표를 클릭하세요.


METAR-TAF: